Time;durP1;ratioP1;P1;durP2;ratioP2;P2;SDS_P1;SDS_P2;PMS_P1;PMS_P2;Temp;Humidity;BMP_temperature;BMP_pressure;BME280_temperature;BME280_humidity;BME280_pressure;Samples;Min_cycle;Max_cycle;Signal;HPM_P1;HPM_P2
2024/01/21 00:01:29;;;;;;;1.50;1.13;;;21.00;61.70;;;;;;4963858;28;20212;-83
2024/01/21 00:03:57;;;;;;;1.35;1.10;;;21.00;61.60;;;;;;4969338;28;20333;-83
2024/01/21 00:06:24;;;;;;;1.13;1.02;;;21.00;61.60;;;;;;4966258;28;20205;-83
2024/01/21 00:08:51;;;;;;;1.15;0.98;;;21.00;61.60;;;;;;4969658;28;20556;-83
2024/01/21 00:11:18;;;;;;;1.80;1.00;;;21.00;61.50;;;;;;4959338;28;20201;-85
2024/01/21 00:13:44;;;;;;;1.38;0.95;;;21.00;61.50;;;;;;4970121;28;20201;-83
2024/01/21 00:16:11;;;;;;;1.55;1.25;;;21.00;61.50;;;;;;4970693;28;20809;-83
2024/01/21 00:18:38;;;;;;;1.30;1.20;;;21.00;61.50;;;;;;4968650;28;20209;-84
2024/01/21 00:21:06;;;;;;;1.75;1.30;;;21.00;61.50;;;;;;4969949;28;20205;-85
2024/01/21 00:23:32;;;;;;;1.10;0.93;;;21.00;61.50;;;;;;4970597;28;20228;-83
2024/01/21 00:25:59;;;;;;;1.65;1.48;;;21.00;61.50;;;;;;4970836;28;20203;-85
2024/01/21 00:28:26;;;;;;;2.65;1.20;;;21.00;61.40;;;;;;4966284;28;20194;-85
2024/01/21 00:30:53;;;;;;;1.40;1.10;;;21.00;61.40;;;;;;4959701;28;20223;-84
2024/01/21 00:33:20;;;;;;;3.37;1.10;;;21.00;61.40;;;;;;4962877;28;20873;-85
2024/01/21 00:35:47;;;;;;;1.73;1.45;;;21.00;61.50;;;;;;4963729;28;22867;-85
2024/01/21 00:38:15;;;;;;;1.30;1.05;;;21.10;61.50;;;;;;4962835;28;20573;-84
2024/01/21 00:40:42;;;;;;;1.45;1.02;;;21.00;61.40;;;;;;4959015;28;20612;-84
2024/01/21 00:43:08;;;;;;;1.83;1.05;;;21.00;61.40;;;;;;4958380;28;21055;-85
2024/01/21 00:45:35;;;;;;;1.38;1.02;;;21.00;61.50;;;;;;4958830;28;20689;-85
2024/01/21 00:48:02;;;;;;;1.40;0.95;;;21.00;61.30;;;;;;4959429;28;20594;-85
2024/01/21 00:50:29;;;;;;;1.20;0.90;;;21.00;61.40;;;;;;4959038;28;20680;-86
2024/01/21 00:52:55;;;;;;;1.45;1.20;;;21.00;61.40;;;;;;4960615;28;20201;-85
2024/01/21 00:55:23;;;;;;;1.15;0.90;;;21.00;61.40;;;;;;4958278;28;20201;-85
2024/01/21 00:57:50;;;;;;;1.20;0.95;;;21.00;61.40;;;;;;4956755;28;20673;-85
2024/01/21 01:00:19;;;;;;;1.27;1.00;;;21.00;61.30;;;;;;4960064;28;20866;-84
2024/01/21 01:02:46;;;;;;;1.52;1.33;;;21.00;61.30;;;;;;4961154;28;20621;-84
2024/01/21 01:05:12;;;;;;;1.00;0.85;;;21.00;61.20;;;;;;4958291;28;20871;-83
2024/01/21 01:07:39;;;;;;;1.20;1.10;;;21.00;61.20;;;;;;4959646;28;20584;-83
2024/01/21 01:10:07;;;;;;;1.10;1.00;;;21.00;61.30;;;;;;4955752;28;20201;-83
2024/01/21 01:12:35;;;;;;;1.30;0.90;;;21.00;61.30;;;;;;4957727;28;20212;-83
2024/01/21 01:15:02;;;;;;;1.35;0.90;;;21.00;61.40;;;;;;4958236;28;20201;-84
2024/01/21 01:17:29;;;;;;;1.00;0.80;;;21.00;61.30;;;;;;4954861;28;20209;-83
2024/01/21 01:19:56;;;;;;;1.20;0.90;;;21.00;61.30;;;;;;4959633;28;20216;-84
2024/01/21 01:22:23;;;;;;;1.25;0.90;;;21.00;61.40;;;;;;4951442;28;22657;-83
2024/01/21 01:24:50;;;;;;;2.00;1.20;;;21.00;61.20;;;;;;4956031;28;20220;-83
2024/01/21 01:27:17;;;;;;;1.20;0.90;;;21.00;61.30;;;;;;4959015;28;25323;-84
2024/01/21 01:29:45;;;;;;;1.20;1.00;;;21.00;61.40;;;;;;4959676;28;20619;-84
2024/01/21 01:32:12;;;;;;;1.05;0.80;;;21.00;61.20;;;;;;4958161;28;21226;-84
2024/01/21 01:34:39;;;;;;;1.25;0.88;;;21.00;61.30;;;;;;4959963;28;20209;-84
2024/01/21 01:37:08;;;;;;;1.13;0.90;;;21.00;61.20;;;;;;4960619;28;20648;-83
2024/01/21 01:39:35;;;;;;;1.20;1.00;;;21.00;61.20;;;;;;4960640;28;20714;-84
2024/01/21 01:42:02;;;;;;;3.25;1.10;;;21.00;61.20;;;;;;4959070;28;20209;-84
2024/01/21 01:44:29;;;;;;;1.30;0.98;;;21.00;61.20;;;;;;4959965;28;20732;-84
2024/01/21 01:46:57;;;;;;;1.30;0.90;;;21.00;61.20;;;;;;4956121;28;21223;-84
2024/01/21 01:49:24;;;;;;;1.35;1.10;;;21.00;61.20;;;;;;4961276;28;20468;-84
2024/01/21 01:51:50;;;;;;;1.15;1.00;;;21.00;61.20;;;;;;4964479;28;20686;-84
2024/01/21 01:54:18;;;;;;;1.10;0.80;;;21.00;61.20;;;;;;4960031;28;23525;-83
2024/01/21 01:56:45;;;;;;;1.20;1.10;;;21.00;61.20;;;;;;4957997;28;25105;-84
2024/01/21 01:59:14;;;;;;;1.08;0.80;;;21.00;61.20;;;;;;4958101;28;20201;-84
2024/01/21 02:01:41;;;;;;;1.33;0.93;;;21.00;61.20;;;;;;4955074;28;20305;-84
2024/01/21 02:04:11;;;;;;;1.27;1.15;;;21.00;61.20;;;;;;4961521;28;20217;-85
2024/01/21 02:06:38;;;;;;;0.90;0.75;;;21.00;61.20;;;;;;4959015;28;20355;-84
2024/01/21 02:09:05;;;;;;;1.20;1.10;;;21.00;61.20;;;;;;4954576;28;21044;-84
2024/01/21 02:11:32;;;;;;;1.70;1.25;;;21.00;61.20;;;;;;4955761;28;22186;-84
2024/01/21 02:13:59;;;;;;;1.00;0.90;;;21.00;61.20;;;;;;4959143;28;20208;-86
2024/01/21 02:16:25;;;;;;;1.00;0.90;;;21.00;61.20;;;;;;4956482;28;20209;-85
2024/01/21 02:18:53;;;;;;;1.00;0.70;;;21.00;61.20;;;;;;4957382;28;24438;-84
2024/01/21 02:21:21;;;;;;;1.10;0.90;;;21.00;61.20;;;;;;4959032;28;21045;-84
2024/01/21 02:23:49;;;;;;;1.10;1.00;;;21.00;62.10;;;;;;4955076;28;20222;-83
2024/01/21 02:26:15;;;;;;;1.10;0.80;;;21.00;61.30;;;;;;4958081;28;20208;-84
2024/01/21 02:28:42;;;;;;;1.20;1.00;;;21.00;61.20;;;;;;4958405;28;20967;-83
2024/01/21 02:31:09;;;;;;;1.83;1.08;;;21.00;61.20;;;;;;4956292;28;20205;-84
2024/01/21 02:33:36;;;;;;;1.08;0.90;;;21.00;61.20;;;;;;4959008;28;20205;-83
2024/01/21 02:36:02;;;;;;;1.40;0.70;;;21.00;61.20;;;;;;4962939;28;25411;-83
2024/01/21 02:38:29;;;;;;;1.10;0.90;;;21.00;61.40;;;;;;4961653;28;20478;-84
2024/01/21 02:40:57;;;;;;;1.20;0.90;;;21.00;61.10;;;;;;4957972;28;20661;-84
2024/01/21 02:43:24;;;;;;;1.30;1.20;;;21.00;61.10;;;;;;4960834;28;20221;-83
2024/01/21 02:45:51;;;;;;;1.10;0.80;;;21.00;61.20;;;;;;4956604;28;20231;-84
2024/01/21 02:48:17;;;;;;;1.55;1.20;;;21.00;62.00;;;;;;4960295;28;20209;-83
2024/01/21 02:50:44;;;;;;;1.10;0.90;;;21.00;61.10;;;;;;4961756;28;20213;-84
2024/01/21 02:53:11;;;;;;;2.88;1.00;;;21.00;61.10;;;;;;4963676;28;26438;-83
2024/01/21 02:55:38;;;;;;;0.90;0.70;;;21.00;61.10;;;;;;4957047;28;20222;-82
2024/01/21 02:58:06;;;;;;;1.20;0.80;;;21.00;61.10;;;;;;4961098;28;20212;-84
2024/01/21 03:00:32;;;;;;;1.10;0.80;;;21.00;61.10;;;;;;4962828;28;21323;-84
2024/01/21 03:02:59;;;;;;;1.33;1.10;;;21.00;61.10;;;;;;4962474;28;20205;-84
2024/01/21 03:05:26;;;;;;;2.58;0.88;;;21.00;61.10;;;;;;4959759;28;20205;-84
2024/01/21 03:07:53;;;;;;;1.00;0.90;;;21.00;61.20;;;;;;4957968;28;20307;-84
2024/01/21 03:10:19;;;;;;;1.60;0.90;;;21.00;61.10;;;;;;4956448;28;20197;-83
2024/01/21 03:12:46;;;;;;;1.10;0.80;;;21.00;61.20;;;;;;4958007;28;20468;-83
2024/01/21 03:15:14;;;;;;;1.00;0.82;;;21.00;61.10;;;;;;4956672;28;20660;-83
2024/01/21 03:17:41;;;;;;;1.40;1.15;;;21.00;61.20;;;;;;4953912;28;20691;-84
2024/01/21 03:20:09;;;;;;;1.38;0.93;;;21.00;61.20;;;;;;4956918;28;20208;-84
2024/01/21 03:22:36;;;;;;;0.90;0.80;;;21.00;61.20;;;;;;4961024;28;20202;-83
2024/01/21 03:25:03;;;;;;;1.20;1.00;;;20.90;61.10;;;;;;4960496;28;20692;-83
2024/01/21 03:27:29;;;;;;;1.10;0.77;;;21.00;61.20;;;;;;4955266;28;20210;-84
2024/01/21 03:29:56;;;;;;;1.30;1.00;;;21.00;61.10;;;;;;4956472;28;22626;-83
2024/01/21 03:32:24;;;;;;;1.70;0.75;;;21.00;61.10;;;;;;4951334;28;20197;-83
2024/01/21 03:34:51;;;;;;;1.17;1.00;;;21.00;61.20;;;;;;4957826;28;20206;-83
2024/01/21 03:37:18;;;;;;;3.85;0.90;;;21.00;61.20;;;;;;4959330;28;20206;-83
2024/01/21 03:39:45;;;;;;;0.90;0.75;;;21.00;61.20;;;;;;4959815;28;22546;-84
2024/01/21 03:42:12;;;;;;;1.10;0.70;;;21.00;61.20;;;;;;4961772;28;20208;-83
2024/01/21 03:44:38;;;;;;;1.00;0.75;;;21.00;61.10;;;;;;4957858;28;20216;-83
2024/01/21 03:47:06;;;;;;;1.20;1.05;;;21.00;61.20;;;;;;4960307;28;20205;-83
2024/01/21 03:49:34;;;;;;;1.23;0.75;;;21.00;61.20;;;;;;4963656;28;25497;-82
2024/01/21 03:52:00;;;;;;;1.00;0.83;;;21.00;61.20;;;;;;4963238;28;20215;-83
2024/01/21 03:54:27;;;;;;;1.10;0.90;;;20.90;61.10;;;;;;4963809;28;20460;-83
2024/01/21 03:56:54;;;;;;;1.20;1.00;;;21.00;61.10;;;;;;4967323;28;20212;-83
2024/01/21 03:59:20;;;;;;;1.10;0.93;;;21.00;61.20;;;;;;4962339;28;20193;-84
2024/01/21 04:01:47;;;;;;;0.93;0.77;;;21.00;61.20;;;;;;4962283;28;20208;-83
2024/01/21 04:04:14;;;;;;;1.00;0.80;;;21.00;61.20;;;;;;4967608;28;20220;-82
2024/01/21 04:06:44;;;;;;;2.22;1.02;;;21.00;61.20;;;;;;4970382;28;21170;-83
2024/01/21 04:09:12;;;;;;;1.25;1.00;;;21.00;61.20;;;;;;4960827;28;20787;-83
2024/01/21 04:11:41;;;;;;;1.20;0.70;;;21.00;61.20;;;;;;4962352;28;20564;-85
2024/01/21 04:14:07;;;;;;;1.20;1.00;;;21.00;61.20;;;;;;4965969;28;20494;-82
2024/01/21 04:16:34;;;;;;;1.15;0.90;;;21.00;61.10;;;;;;4959054;28;20201;-83
2024/01/21 04:19:01;;;;;;;1.23;0.80;;;21.00;61.10;;;;;;4963094;28;20548;-83
2024/01/21 04:21:28;;;;;;;1.40;1.00;;;21.00;61.10;;;;;;4963797;28;20205;-83
2024/01/21 04:23:56;;;;;;;1.60;1.40;;;21.00;61.20;;;;;;4962371;28;20229;-83
2024/01/21 04:26:22;;;;;;;1.15;0.88;;;21.00;61.20;;;;;;4965137;28;20201;-83
2024/01/21 04:28:49;;;;;;;1.10;0.80;;;21.00;61.20;;;;;;4962877;28;20880;-83
2024/01/21 04:31:16;;;;;;;1.15;0.70;;;20.90;61.10;;;;;;4960679;28;20208;-83
2024/01/21 04:33:42;;;;;;;1.10;0.80;;;21.00;61.20;;;;;;4957596;28;20211;-83
2024/01/21 04:36:15;;;;;;;1.60;1.15;;;20.90;61.10;;;;;;4963638;28;20197;-82
2024/01/21 04:38:42;;;;;;;1.00;0.70;;;21.00;61.10;;;;;;4966448;28;20233;-83
2024/01/21 04:41:10;;;;;;;1.00;0.90;;;21.00;61.20;;;;;;4960250;28;20216;-82
2024/01/21 04:43:37;;;;;;;1.33;1.10;;;21.00;61.20;;;;;;4963069;28;20486;-82
2024/01/21 04:46:04;;;;;;;1.08;0.80;;;21.00;61.10;;;;;;4963233;28;20538;-82
2024/01/21 04:48:31;;;;;;;1.27;1.10;;;21.00;61.10;;;;;;4960665;28;20775;-82
2024/01/21 04:50:57;;;;;;;1.20;0.85;;;21.00;61.10;;;;;;4962722;28;20212;-83
2024/01/21 04:53:24;;;;;;;1.60;1.02;;;21.00;61.10;;;;;;4960432;28;20212;-83
2024/01/21 04:55:51;;;;;;;0.93;0.75;;;21.00;61.10;;;;;;4961176;28;20201;-83
2024/01/21 04:58:19;;;;;;;1.20;0.80;;;21.00;61.10;;;;;;4959907;28;20205;-83
2024/01/21 05:00:46;;;;;;;1.00;0.80;;;20.90;60.90;;;;;;4963999;28;24996;-83
2024/01/21 05:03:12;;;;;;;1.30;1.10;;;20.90;61.00;;;;;;4959778;28;20209;-83
2024/01/21 05:05:39;;;;;;;1.27;0.75;;;20.90;61.00;;;;;;4958735;28;20221;-83
2024/01/21 05:08:06;;;;;;;1.23;0.85;;;20.90;60.90;;;;;;4964771;28;20695;-84
2024/01/21 05:10:33;;;;;;;1.30;0.70;;;20.90;61.00;;;;;;4962104;28;20679;-83
2024/01/21 05:13:00;;;;;;;1.23;0.90;;;20.90;61.70;;;;;;4966171;28;21675;-83
2024/01/21 05:15:28;;;;;;;1.05;0.80;;;20.90;61.00;;;;;;4962113;28;22726;-83
2024/01/21 05:17:56;;;;;;;1.00;0.80;;;21.00;61.00;;;;;;4960118;28;20206;-83
2024/01/21 05:20:23;;;;;;;1.00;0.80;;;20.90;61.00;;;;;;4960775;28;20205;-83
2024/01/21 05:22:50;;;;;;;1.77;0.85;;;20.90;61.00;;;;;;4955064;28;20821;-84
2024/01/21 05:25:17;;;;;;;1.05;0.80;;;20.90;60.90;;;;;;4962012;28;20225;-83
2024/01/21 05:27:44;;;;;;;1.00;0.80;;;20.90;60.90;;;;;;4958008;28;21756;-83
2024/01/21 05:30:12;;;;;;;1.10;0.85;;;20.90;60.90;;;;;;4958200;28;20907;-83
2024/01/21 05:32:41;;;;;;;1.20;0.80;;;20.90;60.90;;;;;;4958689;28;20205;-83
2024/01/21 05:35:10;;;;;;;1.30;0.90;;;21.00;61.00;;;;;;4959713;28;20664;-81
2024/01/21 05:37:37;;;;;;;1.20;0.95;;;20.90;60.90;;;;;;4957755;28;20219;-84
2024/01/21 05:40:05;;;;;;;1.58;0.90;;;20.90;60.90;;;;;;4959966;28;20854;-83
2024/01/21 05:42:31;;;;;;;1.20;0.90;;;20.90;60.90;;;;;;4957680;28;20223;-83
2024/01/21 05:44:58;;;;;;;1.10;0.95;;;20.90;60.90;;;;;;4956487;28;20468;-83
2024/01/21 05:47:25;;;;;;;1.00;0.85;;;20.90;60.90;;;;;;4955726;28;20209;-83
2024/01/21 05:49:53;;;;;;;1.75;0.85;;;20.90;60.90;;;;;;4957792;28;20221;-82
2024/01/21 05:52:19;;;;;;;1.00;0.77;;;20.90;60.90;;;;;;4960227;28;20212;-83
2024/01/21 05:54:46;;;;;;;1.10;0.80;;;20.90;60.90;;;;;;4956061;28;20204;-84
2024/01/21 05:57:13;;;;;;;0.93;0.70;;;20.90;60.80;;;;;;4961567;28;21763;-83
2024/01/21 05:59:40;;;;;;;1.00;0.90;;;20.90;60.90;;;;;;4957144;28;21200;-84
2024/01/21 06:02:10;;;;;;;0.90;0.70;;;20.90;60.90;;;;;;4959945;28;20322;-83
2024/01/21 06:04:37;;;;;;;1.00;0.70;;;20.90;60.90;;;;;;4965033;28;20639;-83
2024/01/21 06:07:05;;;;;;;1.00;0.80;;;20.90;60.90;;;;;;4960948;28;20206;-83
2024/01/21 06:09:32;;;;;;;0.90;0.80;;;20.90;60.90;;;;;;4959751;28;20216;-84
2024/01/21 06:11:59;;;;;;;1.73;0.80;;;20.90;60.90;;;;;;4957216;28;20205;-83
2024/01/21 06:14:26;;;;;;;0.90;0.70;;;21.00;61.10;;;;;;4963074;28;20229;-83
2024/01/21 06:16:53;;;;;;;0.93;0.73;;;20.90;60.90;;;;;;4962080;28;20201;-83
2024/01/21 06:19:19;;;;;;;1.15;0.80;;;20.90;60.90;;;;;;4960773;28;20465;-82
2024/01/21 06:21:46;;;;;;;1.15;1.00;;;20.90;60.90;;;;;;4958813;28;20235;-83
2024/01/21 06:24:16;;;;;;;1.40;1.00;;;20.90;60.90;;;;;;4960652;28;20209;-83
2024/01/21 06:26:44;;;;;;;1.00;0.80;;;20.90;61.00;;;;;;4957021;28;20212;-84
2024/01/21 06:29:11;;;;;;;1.20;0.90;;;20.90;60.90;;;;;;4957283;28;25784;-83
2024/01/21 06:31:38;;;;;;;0.90;0.70;;;20.90;60.90;;;;;;4957123;28;22397;-84
2024/01/21 06:34:04;;;;;;;1.30;0.90;;;20.90;60.90;;;;;;4957825;28;20201;-83
2024/01/21 06:36:31;;;;;;;1.20;1.00;;;20.90;60.90;;;;;;4961043;28;21062;-84
2024/01/21 06:38:58;;;;;;;1.00;0.82;;;20.90;61.00;;;;;;4958958;28;20212;-84
2024/01/21 06:41:26;;;;;;;1.00;0.82;;;20.90;60.90;;;;;;4958246;28;20209;-84
2024/01/21 06:43:53;;;;;;;1.10;1.00;;;20.90;60.90;;;;;;4958910;28;20331;-83
2024/01/21 06:46:19;;;;;;;1.20;0.82;;;20.90;60.90;;;;;;4958550;28;21130;-83
2024/01/21 06:48:46;;;;;;;1.10;0.80;;;20.90;60.80;;;;;;4957286;28;20200;-83
2024/01/21 06:51:31;;;;;;;1.10;0.80;;;20.90;60.90;;;;;;4959499;28;20225;-83
2024/01/21 06:53:57;;;;;;;1.10;0.90;;;20.90;60.90;;;;;;4962683;28;20208;-83
2024/01/21 06:56:26;;;;;;;0.88;0.68;;;20.90;60.90;;;;;;4955639;28;20205;-83
2024/01/21 06:58:52;;;;;;;1.00;0.80;;;20.90;60.90;;;;;;4959847;28;20743;-83
2024/01/21 07:01:19;;;;;;;1.10;0.80;;;20.90;60.80;;;;;;4959742;28;20283;-84
2024/01/21 07:03:46;;;;;;;1.00;0.70;;;20.90;60.80;;;;;;4959702;28;20939;-84
2024/01/21 07:06:13;;;;;;;1.00;0.70;;;20.90;60.70;;;;;;4961789;28;20915;-84
2024/01/21 07:08:40;;;;;;;0.90;0.60;;;20.90;60.60;;;;;;4960563;28;22005;-84
2024/01/21 07:11:07;;;;;;;1.85;0.80;;;20.90;60.60;;;;;;4957628;28;20201;-84
2024/01/21 07:13:36;;;;;;;0.90;0.70;;;20.90;60.90;;;;;;4955850;28;21154;-84
2024/01/21 07:16:03;;;;;;;0.90;0.70;;;20.90;60.50;;;;;;4958096;28;20212;-84
2024/01/21 07:18:30;;;;;;;1.10;0.80;;;20.90;60.50;;;;;;4958288;28;20197;-84
2024/01/21 07:20:56;;;;;;;1.20;1.00;;;20.90;60.50;;;;;;4952235;28;20193;-84
2024/01/21 07:23:23;;;;;;;1.00;0.70;;;20.80;60.40;;;;;;4962318;28;20668;-84
2024/01/21 07:25:50;;;;;;;0.98;0.70;;;20.80;60.40;;;;;;4963215;28;20209;-83
2024/01/21 07:28:17;;;;;;;1.10;0.90;;;20.80;60.40;;;;;;4963522;28;20338;-83
2024/01/21 07:30:45;;;;;;;0.90;0.70;;;20.80;60.50;;;;;;4959694;28;20212;-85
2024/01/21 07:33:12;;;;;;;1.00;0.80;;;20.80;60.60;;;;;;4965837;28;22615;-83
2024/01/21 07:35:39;;;;;;;0.90;0.65;;;20.80;60.60;;;;;;4962871;28;20767;-84
2024/01/21 07:38:05;;;;;;;1.10;0.80;;;20.80;60.60;;;;;;4968860;28;20216;-84
2024/01/21 07:40:32;;;;;;;1.17;0.98;;;20.80;60.70;;;;;;4964746;28;20577;-83
2024/01/21 07:42:59;;;;;;;1.10;0.73;;;20.80;60.80;;;;;;4963544;28;21845;-83
2024/01/21 07:45:26;;;;;;;1.13;0.90;;;20.80;60.90;;;;;;4961687;28;20592;-82
2024/01/21 07:47:54;;;;;;;0.90;0.70;;;20.80;60.90;;;;;;4965639;28;20883;-83
2024/01/21 07:50:20;;;;;;;0.98;0.77;;;20.80;60.90;;;;;;4963269;28;20212;-83
2024/01/21 07:52:47;;;;;;;0.93;0.82;;;20.80;60.90;;;;;;4964585;28;20196;-82
2024/01/21 07:55:14;;;;;;;1.00;0.80;;;20.80;60.80;;;;;;4963052;28;20213;-83
2024/01/21 07:57:41;;;;;;;1.02;0.80;;;20.80;60.90;;;;;;4962861;28;20361;-83
2024/01/21 08:00:09;;;;;;;1.10;1.00;;;20.90;61.00;;;;;;4957005;28;20651;-83
2024/01/21 08:02:36;;;;;;;1.30;0.70;;;20.90;61.00;;;;;;4960823;28;20201;-84
2024/01/21 08:05:05;;;;;;;1.10;0.80;;;20.90;61.00;;;;;;4962088;28;20235;-82
2024/01/21 08:07:31;;;;;;;1.15;0.80;;;20.90;61.00;;;;;;4962455;28;20257;-83
2024/01/21 08:09:58;;;;;;;0.90;0.70;;;20.90;61.00;;;;;;4960263;28;20208;-82
2024/01/21 08:12:25;;;;;;;1.05;0.88;;;20.90;61.00;;;;;;4963989;28;20205;-82
2024/01/21 08:14:52;;;;;;;1.02;0.70;;;20.90;61.00;;;;;;4962631;28;20236;-83
2024/01/21 08:17:20;;;;;;;0.95;0.77;;;20.90;60.90;;;;;;4957780;28;20300;-82
2024/01/21 08:19:46;;;;;;;1.00;0.70;;;20.90;61.00;;;;;;4961581;28;20205;-83
2024/01/21 08:22:14;;;;;;;0.90;0.70;;;20.90;61.00;;;;;;4962263;28;20464;-82
2024/01/21 08:24:41;;;;;;;1.00;0.80;;;20.90;60.90;;;;;;4961110;28;20676;-82
2024/01/21 08:27:08;;;;;;;1.35;0.93;;;20.90;60.90;;;;;;4963174;28;20201;-84
2024/01/21 08:29:36;;;;;;;1.25;0.70;;;20.90;60.90;;;;;;4962592;28;20292;-83
2024/01/21 08:32:06;;;;;;;1.15;0.80;;;20.90;60.90;;;;;;4961358;28;20279;-83
2024/01/21 08:34:33;;;;;;;1.17;0.98;;;20.90;60.80;;;;;;4961821;28;20209;-82
2024/01/21 08:36:59;;;;;;;1.08;0.80;;;20.90;60.80;;;;;;4962009;28;20207;-82
2024/01/21 08:39:28;;;;;;;0.90;0.70;;;20.90;60.80;;;;;;4962199;28;20212;-81
2024/01/21 08:41:54;;;;;;;1.00;0.70;;;20.90;60.70;;;;;;4958219;28;20201;-83
2024/01/21 08:44:21;;;;;;;1.10;0.80;;;20.90;60.80;;;;;;4962497;28;20208;-83
2024/01/21 08:46:48;;;;;;;1.00;0.80;;;20.90;60.70;;;;;;4954073;28;20221;-83
2024/01/21 08:49:15;;;;;;;1.20;0.80;;;20.90;60.90;;;;;;4964494;28;20676;-83
2024/01/21 08:51:42;;;;;;;1.33;0.80;;;20.90;60.80;;;;;;4957882;28;20755;-82
2024/01/21 08:54:09;;;;;;;1.30;0.90;;;20.90;60.70;;;;;;4962026;28;20204;-82
2024/01/21 08:56:37;;;;;;;1.00;0.80;;;20.90;60.70;;;;;;4962344;28;21174;-83
2024/01/21 08:59:04;;;;;;;1.00;0.80;;;20.90;60.70;;;;;;4958465;28;20202;-81
2024/01/21 09:01:30;;;;;;;1.13;1.00;;;20.90;60.70;;;;;;4960871;28;20206;-81
2024/01/21 09:03:57;;;;;;;1.17;0.70;;;21.00;60.90;;;;;;4959456;28;20205;-81
2024/01/21 09:06:24;;;;;;;1.08;0.80;;;21.00;60.90;;;;;;4964129;28;20230;-81
2024/01/21 09:08:53;;;;;;;1.10;0.90;;;21.00;61.00;;;;;;4959740;28;20201;-81
2024/01/21 09:11:21;;;;;;;2.10;0.70;;;21.00;61.00;;;;;;4962411;28;20248;-81
2024/01/21 09:13:49;;;;;;;1.00;0.90;;;21.00;61.20;;;;;;4958427;28;20594;-81
2024/01/21 09:16:16;;;;;;;1.20;0.95;;;21.00;61.30;;;;;;4958660;28;20750;-81
2024/01/21 09:18:43;;;;;;;1.25;0.90;;;21.00;61.40;;;;;;4961837;28;22901;-81
2024/01/21 09:21:10;;;;;;;6.35;1.17;;;21.00;61.30;;;;;;4958744;28;20668;-81
2024/01/21 09:23:36;;;;;;;1.88;0.80;;;21.00;61.30;;;;;;4965426;28;20671;-81
2024/01/21 09:26:03;;;;;;;1.27;0.70;;;21.00;61.30;;;;;;4964882;28;20217;-81
2024/01/21 09:28:30;;;;;;;1.30;0.80;;;21.00;61.30;;;;;;4970311;28;20204;-81
2024/01/21 09:30:58;;;;;;;1.05;0.95;;;21.00;61.20;;;;;;4964951;28;20956;-81
2024/01/21 09:33:25;;;;;;;1.35;1.23;;;21.00;61.20;;;;;;4967136;28;20198;-81
2024/01/21 09:35:51;;;;;;;2.00;0.85;;;21.00;61.10;;;;;;4965796;28;20198;-81
2024/01/21 09:38:21;;;;;;;1.00;0.80;;;21.00;61.10;;;;;;4967886;28;20197;-81
2024/01/21 09:40:57;;;;;;;1.30;0.82;;;21.00;61.00;;;;;;4960462;28;20201;-81
2024/01/21 09:43:24;;;;;;;1.20;0.80;;;21.00;61.00;;;;;;4969632;28;20313;-81
2024/01/21 09:45:52;;;;;;;1.00;0.70;;;21.00;60.90;;;;;;4962966;28;20221;-81
2024/01/21 09:48:20;;;;;;;1.15;0.80;;;21.00;60.90;;;;;;4975950;28;20201;-81
2024/01/21 09:50:49;;;;;;;5.22;1.00;;;21.00;60.80;;;;;;4967800;28;20748;-81
2024/01/21 09:53:15;;;;;;;1.48;0.90;;;21.00;60.80;;;;;;4954841;28;20205;-80
2024/01/21 09:55:42;;;;;;;1.10;0.80;;;21.00;60.70;;;;;;4962218;28;22846;-81
2024/01/21 09:58:14;;;;;;;1.00;0.80;;;21.00;60.70;;;;;;4958613;28;20588;-80
2024/01/21 10:00:42;;;;;;;1.10;0.90;;;21.00;60.70;;;;;;4962887;28;20209;-80
2024/01/21 10:03:09;;;;;;;1.10;0.90;;;21.00;60.60;;;;;;4962932;28;20206;-81
2024/01/21 10:05:37;;;;;;;1.08;0.70;;;21.00;60.60;;;;;;4964030;28;20231;-80
2024/01/21 10:08:04;;;;;;;0.90;0.75;;;21.00;60.60;;;;;;4962355;28;25521;-82
2024/01/21 10:10:31;;;;;;;1.20;1.00;;;21.00;60.50;;;;;;4959823;28;20197;-81
2024/01/21 10:12:58;;;;;;;1.13;0.80;;;21.00;60.50;;;;;;4958541;28;20218;-81
2024/01/21 10:15:25;;;;;;;1.40;1.30;;;21.00;60.50;;;;;;4958981;28;20822;-80
2024/01/21 10:17:52;;;;;;;1.08;0.80;;;21.00;60.50;;;;;;4960313;28;20213;-82
2024/01/21 10:20:19;;;;;;;1.20;1.00;;;21.00;60.50;;;;;;4963845;28;20208;-82
2024/01/21 10:22:48;;;;;;;1.20;1.00;;;21.00;60.40;;;;;;4957586;28;20210;-81
2024/01/21 10:25:15;;;;;;;1.00;0.80;;;21.00;60.50;;;;;;4960689;28;20299;-81
2024/01/21 10:27:41;;;;;;;1.27;1.10;;;21.00;60.40;;;;;;4959974;28;20224;-81
2024/01/21 10:30:10;;;;;;;1.30;1.10;;;21.00;60.40;;;;;;4958931;28;20315;-81
2024/01/21 10:32:36;;;;;;;1.00;0.80;;;21.00;60.40;;;;;;4953355;28;20201;-82
2024/01/21 10:35:06;;;;;;;1.02;0.90;;;21.00;60.40;;;;;;4963537;28;20201;-81
2024/01/21 10:37:38;;;;;;;1.60;1.10;;;21.00;60.40;;;;;;4958680;28;20193;-82
2024/01/21 10:40:10;;;;;;;1.30;0.90;;;21.00;60.40;;;;;;4957939;28;20202;-82
2024/01/21 10:42:37;;;;;;;1.20;0.90;;;21.00;60.30;;;;;;4957555;28;20208;-83
2024/01/21 10:45:06;;;;;;;1.50;1.10;;;21.00;60.30;;;;;;4958045;28;20209;-82
2024/01/21 10:47:34;;;;;;;1.25;0.85;;;21.00;60.30;;;;;;4956459;28;20223;-82
2024/01/21 10:50:02;;;;;;;1.17;0.90;;;21.00;60.30;;;;;;4957915;28;20209;-81
2024/01/21 10:52:29;;;;;;;1.05;0.90;;;21.00;60.20;;;;;;4950261;28;25344;-81
2024/01/21 10:54:58;;;;;;;1.50;1.10;;;21.00;60.30;;;;;;4959118;28;20573;-82
2024/01/21 10:57:26;;;;;;;1.00;0.85;;;21.00;60.10;;;;;;4955817;28;20982;-82
2024/01/21 10:59:53;;;;;;;1.40;1.02;;;21.00;60.10;;;;;;4955415;28;20556;-82
2024/01/21 11:02:20;;;;;;;1.23;0.90;;;21.00;60.10;;;;;;4950210;28;20216;-82
2024/01/21 11:04:47;;;;;;;1.10;1.00;;;21.00;60.10;;;;;;4954584;28;20554;-81
2024/01/21 11:07:14;;;;;;;1.13;0.95;;;21.00;60.00;;;;;;4954949;28;20958;-79
2024/01/21 11:09:42;;;;;;;2.17;1.10;;;21.00;60.00;;;;;;4954255;28;20711;-83
2024/01/21 11:12:10;;;;;;;1.00;0.90;;;21.00;60.00;;;;;;4956304;28;20205;-82
2024/01/21 11:14:40;;;;;;;1.45;0.90;;;21.00;60.00;;;;;;4953360;28;21200;-82
2024/01/21 11:17:10;;;;;;;1.63;0.90;;;21.00;60.00;;;;;;4952965;28;20319;-81
2024/01/21 11:19:44;;;;;;;1.10;0.80;;;21.00;60.00;;;;;;4959384;28;20216;-82
2024/01/21 11:22:12;;;;;;;8.95;1.55;;;21.00;59.90;;;;;;4956936;28;20464;-82
2024/01/21 11:24:40;;;;;;;1.20;0.90;;;21.00;60.70;;;;;;4957115;28;20669;-81
2024/01/21 11:27:16;;;;;;;1.52;1.00;;;21.00;59.90;;;;;;4940046;28;20224;-81
2024/01/21 11:29:44;;;;;;;3.70;1.10;;;21.00;59.90;;;;;;4952598;28;20288;-81
2024/01/21 11:32:12;;;;;;;2.08;0.90;;;21.00;59.90;;;;;;4958540;28;20204;-82
2024/01/21 11:34:41;;;;;;;1.20;0.93;;;21.00;59.90;;;;;;4958787;28;20263;-82
2024/01/21 11:37:09;;;;;;;1.98;1.20;;;21.00;59.90;;;;;;4955494;28;20205;-80
2024/01/21 11:39:36;;;;;;;2.55;0.85;;;21.00;59.80;;;;;;4961849;28;20213;-83
2024/01/21 11:42:03;;;;;;;2.13;1.55;;;21.00;59.30;;;;;;4966689;28;20205;-82
2024/01/21 11:44:32;;;;;;;2.65;1.52;;;21.00;59.70;;;;;;4963975;28;21053;-84
2024/01/21 11:47:02;;;;;;;2.53;1.50;;;21.00;59.20;;;;;;4968118;28;20286;-84
2024/01/21 11:49:29;;;;;;;1.40;1.30;;;20.90;58.70;;;;;;4961463;28;20220;-83
2024/01/21 11:51:57;;;;;;;1.45;1.35;;;20.90;58.50;;;;;;4963288;28;20203;-84
2024/01/21 11:54:24;;;;;;;1.60;1.45;;;20.80;58.40;;;;;;4965244;28;20210;-82
2024/01/21 11:56:52;;;;;;;2.20;1.60;;;20.80;58.30;;;;;;4966772;28;20209;-83
2024/01/21 11:59:19;;;;;;;3.55;1.35;;;20.80;58.40;;;;;;4967105;28;20216;-84
2024/01/21 12:01:49;;;;;;;1.92;1.45;;;20.80;58.30;;;;;;4969346;28;20208;-83
2024/01/21 12:04:17;;;;;;;3.17;1.50;;;20.80;58.20;;;;;;4970954;28;20201;-84
2024/01/21 12:06:46;;;;;;;1.30;1.17;;;20.80;58.20;;;;;;4971191;28;20580;-84
2024/01/21 12:09:14;;;;;;;2.80;2.35;;;20.70;58.20;;;;;;4964946;28;20201;-84
2024/01/21 12:11:41;;;;;;;1.65;1.40;;;20.80;58.60;;;;;;4965485;28;20197;-83
2024/01/21 12:14:11;;;;;;;2.33;1.67;;;20.70;58.20;;;;;;4967828;28;20689;-83
2024/01/21 12:16:39;;;;;;;3.25;2.00;;;20.70;58.20;;;;;;4968535;28;20208;-84
2024/01/21 12:19:06;;;;;;;1.33;1.20;;;20.80;58.30;;;;;;4968892;28;20197;-84
2024/01/21 12:21:34;;;;;;;2.03;1.77;;;20.70;58.30;;;;;;4971514;28;20201;-84
2024/01/21 12:24:03;;;;;;;1.50;1.20;;;20.70;58.30;;;;;;4967816;28;20248;-84
2024/01/21 12:26:30;;;;;;;2.15;1.38;;;20.70;58.30;;;;;;4974041;28;20253;-83
2024/01/21 12:28:58;;;;;;;2.85;1.48;;;20.70;58.40;;;;;;4972301;28;20663;-83
2024/01/21 12:31:27;;;;;;;2.42;1.50;;;20.70;58.30;;;;;;4983308;28;20201;-83
2024/01/21 12:33:54;;;;;;;1.40;1.20;;;20.70;58.50;;;;;;4979717;28;20206;-82
2024/01/21 12:36:21;;;;;;;1.30;1.10;;;20.70;58.40;;;;;;4973742;28;20212;-81
2024/01/21 12:38:50;;;;;;;1.58;1.48;;;20.70;58.40;;;;;;4978132;28;20204;-83
2024/01/21 12:41:17;;;;;;;1.67;1.50;;;20.70;58.40;;;;;;4977260;28;20298;-83
2024/01/21 12:43:44;;;;;;;1.65;1.55;;;20.70;58.50;;;;;;4977283;28;20560;-82
2024/01/21 12:46:11;;;;;;;1.35;1.25;;;20.70;58.50;;;;;;4975127;28;20201;-83
2024/01/21 12:48:38;;;;;;;1.58;1.15;;;20.70;58.60;;;;;;4975160;28;20193;-83